Terminal Aerodrome Forecast
Issued by NWS Amarillo, TX

Home | Current Version | Previous Version | Text Only | Print | Product List | Glossary On
Versions: 1 2 3 4 5 6 7 8 9 10 11 12 13 14 15 16 17 18 19
000
FTUS44 KAMA 280540
TAFGUY
TAF
KGUY 280540Z 2806/2906 12015KT P6SM SKC
     FM281200 14015KT P6SM OVC010
     FM281500 14015KT 6SM -SHRA OVC008
      TEMPO 2818/2822 VRB25G40KT 2SM TSRA BR OVC008CB
     FM282200 11018KT 4SM SHRA BR OVC008=

USA.gov is the U.S. government's official web portal to all federal, state and local government web resources and services.